sensor_id;sensor_type;location;lat;lon;timestamp;pressure;altitude;pressure_sealevel;temperature;humidity
64675;BME280;51090;51.512;11.332;2023-04-27T00:01:39;99671.13;;;4.20;nan
64675;BME280;51090;51.512;11.332;2023-04-27T00:04:05;99668.94;;;4.15;nan
64675;BME280;51090;51.512;11.332;2023-04-27T00:06:32;99672.66;;;4.13;nan
64675;BME280;51090;51.512;11.332;2023-04-27T00:08:59;99672.94;;;4.10;nan
64675;BME280;51090;51.512;11.332;2023-04-27T00:11:26;99676.53;;;4.09;nan
64675;BME280;51090;51.512;11.332;2023-04-27T00:13:52;99674.16;;;4.06;nan
64675;BME280;51090;51.512;11.332;2023-04-27T00:16:18;99677.06;;;4.03;nan
64675;BME280;51090;51.512;11.332;2023-04-27T00:18:44;99668.66;;;3.99;nan
64675;BME280;51090;51.512;11.332;2023-04-27T00:21:10;99669.75;;;3.97;nan
64675;BME280;51090;51.512;11.332;2023-04-27T00:23:36;99667.41;;;3.93;nan
64675;BME280;51090;51.512;11.332;2023-04-27T00:26:02;99666.84;;;3.90;nan
64675;BME280;51090;51.512;11.332;2023-04-27T00:28:28;99667.94;;;3.87;nan
64675;BME280;51090;51.512;11.332;2023-04-27T00:30:54;99663.25;;;3.81;nan
64675;BME280;51090;51.512;11.332;2023-04-27T00:33:21;99664.47;;;3.77;nan
64675;BME280;51090;51.512;11.332;2023-04-27T00:35:47;99668.34;;;3.73;nan
64675;BME280;51090;51.512;11.332;2023-04-27T00:38:13;99665.13;;;3.69;nan
64675;BME280;51090;51.512;11.332;2023-04-27T00:40:39;99663.50;;;3.68;nan
64675;BME280;51090;51.512;11.332;2023-04-27T00:43:05;99661.00;;;3.67;nan
64675;BME280;51090;51.512;11.332;2023-04-27T00:45:34;99664.72;;;3.64;nan
64675;BME280;51090;51.512;11.332;2023-04-27T00:48:01;99667.63;;;3.61;nan
64675;BME280;51090;51.512;11.332;2023-04-27T00:50:28;99666.09;;;3.59;nan
64675;BME280;51090;51.512;11.332;2023-04-27T00:52:55;99665.38;;;3.57;nan
64675;BME280;51090;51.512;11.332;2023-04-27T00:55:22;99666.47;;;3.54;nan
64675;BME280;51090;51.512;11.332;2023-04-27T00:57:48;99670.34;;;3.50;nan
64675;BME280;51090;51.512;11.332;2023-04-27T01:00:15;99672.41;;;3.46;nan
64675;BME280;51090;51.512;11.332;2023-04-27T01:02:41;99672.56;;;3.45;nan
64675;BME280;51090;51.512;11.332;2023-04-27T01:05:07;99669.34;;;3.41;nan
64675;BME280;51090;51.512;11.332;2023-04-27T01:07:37;99671.97;;;3.41;nan
64675;BME280;51090;51.512;11.332;2023-04-27T01:10:04;99671.41;;;3.38;nan
64675;BME280;51090;51.512;11.332;2023-04-27T01:12:30;99668.25;;;3.34;nan
64675;BME280;51090;51.512;11.332;2023-04-27T01:14:57;99665.88;;;3.31;nan
64675;BME280;51090;51.512;11.332;2023-04-27T01:17:23;99673.06;;;3.29;nan
64675;BME280;51090;51.512;11.332;2023-04-27T01:19:49;99674.97;;;3.27;nan
64675;BME280;51090;51.512;11.332;2023-04-27T01:22:16;99673.44;;;3.24;nan
64675;BME280;51090;51.512;11.332;2023-04-27T01:24:42;99673.56;;;3.23;nan
64675;BME280;51090;51.512;11.332;2023-04-27T01:27:09;99672.84;;;3.21;nan
64675;BME280;51090;51.512;11.332;2023-04-27T01:29:35;99673.94;;;3.18;nan
64675;BME280;51090;51.512;11.332;2023-04-27T01:32:01;99674.09;;;3.17;nan
64675;BME280;51090;51.512;11.332;2023-04-27T01:34:27;99680.28;;;3.16;nan
64675;BME280;51090;51.512;11.332;2023-04-27T01:36:53;99675.19;;;3.14;nan
64675;BME280;51090;51.512;11.332;2023-04-27T01:39:19;99685.09;;;3.11;nan
64675;BME280;51090;51.512;11.332;2023-04-27T01:41:45;99683.31;;;3.11;nan
64675;BME280;51090;51.512;11.332;2023-04-27T01:44:11;99681.78;;;3.09;nan
64675;BME280;51090;51.512;11.332;2023-04-27T01:46:37;99679.28;;;3.07;nan
64675;BME280;51090;51.512;11.332;2023-04-27T01:49:03;99683.81;;;3.05;nan
64675;BME280;51090;51.512;11.332;2023-04-27T01:51:29;99690.88;;;3.04;nan
64675;BME280;51090;51.512;11.332;2023-04-27T01:53:55;99683.97;;;3.03;nan
64675;BME280;51090;51.512;11.332;2023-04-27T01:56:21;99693.75;;;3.01;nan
64675;BME280;51090;51.512;11.332;2023-04-27T01:58:47;99688.63;;;3.00;nan
64675;BME280;51090;51.512;11.332;2023-04-27T02:01:13;99688.91;;;2.97;nan
64675;BME280;51090;51.512;11.332;2023-04-27T02:03:39;99689.00;;;2.95;nan
64675;BME280;51090;51.512;11.332;2023-04-27T02:06:06;99693.44;;;2.95;nan
64675;BME280;51090;51.512;11.332;2023-04-27T02:08:33;99693.56;;;2.93;nan
64675;BME280;51090;51.512;11.332;2023-04-27T02:10:59;99695.50;;;2.91;nan
64675;BME280;51090;51.512;11.332;2023-04-27T02:13:26;99695.88;;;2.87;nan
64675;BME280;51090;51.512;11.332;2023-04-27T02:15:52;99693.25;;;2.87;nan
64675;BME280;51090;51.512;11.332;2023-04-27T02:18:18;99685.66;;;2.83;nan
64675;BME280;51090;51.512;11.332;2023-04-27T02:20:44;99702.19;;;2.84;nan
64675;BME280;51090;51.512;11.332;2023-04-27T02:23:10;99707.69;;;2.81;nan
64675;BME280;51090;51.512;11.332;2023-04-27T02:25:37;99709.50;;;2.80;nan
64675;BME280;51090;51.512;11.332;2023-04-27T02:28:03;99710.56;;;2.78;nan
64675;BME280;51090;51.512;11.332;2023-04-27T02:30:29;99709.97;;;2.74;nan
64675;BME280;51090;51.512;11.332;2023-04-27T02:32:58;99717.84;;;2.74;nan
64675;BME280;51090;51.512;11.332;2023-04-27T02:35:25;99720.72;;;2.71;nan
64675;BME280;51090;51.512;11.332;2023-04-27T02:37:51;99716.56;;;2.69;nan
64675;BME280;51090;51.512;11.332;2023-04-27T02:40:17;99722.78;;;2.68;nan
64675;BME280;51090;51.512;11.332;2023-04-27T02:42:43;99721.25;;;2.65;nan
64675;BME280;51090;51.512;11.332;2023-04-27T02:45:09;99719.56;;;2.64;nan
64675;BME280;51090;51.512;11.332;2023-04-27T02:47:35;99718.88;;;2.62;nan
64675;BME280;51090;51.512;11.332;2023-04-27T02:50:01;99722.59;;;2.59;nan
64675;BME280;51090;51.512;11.332;2023-04-27T02:52:28;99727.13;;;2.57;nan
64675;BME280;51090;51.512;11.332;2023-04-27T02:54:54;99729.28;;;2.52;nan
64675;BME280;51090;51.512;11.332;2023-04-27T02:57:20;99728.09;;;2.45;nan
64675;BME280;51090;51.512;11.332;2023-04-27T02:59:46;99729.56;;;2.38;nan
64675;BME280;51090;51.512;11.332;2023-04-27T03:02:12;99721.84;;;2.36;nan
64675;BME280;51090;51.512;11.332;2023-04-27T03:04:38;99726.22;;;2.36;nan
64675;BME280;51090;51.512;11.332;2023-04-27T03:07:05;99726.22;;;2.36;nan
64675;BME280;51090;51.512;11.332;2023-04-27T03:09:31;99738.38;;;2.37;nan
64675;BME280;51090;51.512;11.332;2023-04-27T03:11:57;99737.56;;;2.36;nan
64675;BME280;51090;51.512;11.332;2023-04-27T03:14:23;99736.69;;;2.36;nan
64675;BME280;51090;51.512;11.332;2023-04-27T03:16:49;99743.88;;;2.34;nan
64675;BME280;51090;51.512;11.332;2023-04-27T03:19:15;99745.53;;;2.35;nan
64675;BME280;51090;51.512;11.332;2023-04-27T03:21:41;99742.09;;;2.34;nan
64675;BME280;51090;51.512;11.332;2023-04-27T03:24:07;99746.50;;;2.34;nan
64675;BME280;51090;51.512;11.332;2023-04-27T03:26:33;99750.03;;;2.33;nan
64675;BME280;51090;51.512;11.332;2023-04-27T03:28:59;99747.44;;;2.33;nan
64675;BME280;51090;51.512;11.332;2023-04-27T03:31:26;99746.59;;;2.32;nan
64675;BME280;51090;51.512;11.332;2023-04-27T03:33:52;99742.97;;;2.24;nan
64675;BME280;51090;51.512;11.332;2023-04-27T03:36:18;99752.56;;;2.23;nan
64675;BME280;51090;51.512;11.332;2023-04-27T03:38:44;99757.91;;;2.33;nan
64675;BME280;51090;51.512;11.332;2023-04-27T03:41:10;99768.38;;;2.33;nan
64675;BME280;51090;51.512;11.332;2023-04-27T03:43:36;99763.72;;;2.36;nan
64675;BME280;51090;51.512;11.332;2023-04-27T03:46:02;99765.38;;;2.37;nan
64675;BME280;51090;51.512;11.332;2023-04-27T03:48:28;99762.66;;;2.39;nan
64675;BME280;51090;51.512;11.332;2023-04-27T03:50:54;99768.34;;;2.44;nan
64675;BME280;51090;51.512;11.332;2023-04-27T03:53:20;99766.03;;;2.51;nan
64675;BME280;51090;51.512;11.332;2023-04-27T03:55:46;99772.06;;;2.63;nan
64675;BME280;51090;51.512;11.332;2023-04-27T03:58:12;99765.34;;;2.70;nan
64675;BME280;51090;51.512;11.332;2023-04-27T04:00:38;99754.25;;;2.77;nan
64675;BME280;51090;51.512;11.332;2023-04-27T04:03:05;99758.63;;;2.88;nan
64675;BME280;51090;51.512;11.332;2023-04-27T04:05:32;99753.69;;;2.95;nan
64675;BME280;51090;51.512;11.332;2023-04-27T04:07:58;99754.94;;;3.00;nan
64675;BME280;51090;51.512;11.332;2023-04-27T04:10:25;99751.56;;;3.10;nan
64675;BME280;51090;51.512;11.332;2023-04-27T04:12:51;99760.31;;;3.20;nan
64675;BME280;51090;51.512;11.332;2023-04-27T04:15:17;99752.44;;;3.20;nan
64675;BME280;51090;51.512;11.332;2023-04-27T04:17:44;99758.13;;;3.25;nan
64675;BME280;51090;51.512;11.332;2023-04-27T04:20:12;99760.09;;;3.33;nan
64675;BME280;51090;51.512;11.332;2023-04-27T04:22:38;99761.38;;;3.38;nan
64675;BME280;51090;51.512;11.332;2023-04-27T04:25:05;99764.44;;;3.43;nan
64675;BME280;51090;51.512;11.332;2023-04-27T04:27:31;99762.41;;;3.47;nan
64675;BME280;51090;51.512;11.332;2023-04-27T04:29:58;99761.97;;;3.52;nan
64675;BME280;51090;51.512;11.332;2023-04-27T04:32:25;99758.13;;;3.56;nan
64675;BME280;51090;51.512;11.332;2023-04-27T04:34:53;99755.13;;;3.60;nan
64675;BME280;51090;51.512;11.332;2023-04-27T04:37:19;99780.72;;;4.38;nan
64675;BME280;51090;51.512;11.332;2023-04-27T04:39:45;99767.28;;;4.21;nan
64675;BME280;51090;51.512;11.332;2023-04-27T04:42:11;99773.69;;;4.38;nan
64675;BME280;51090;51.512;11.332;2023-04-27T04:44:37;99765.25;;;4.44;nan
64675;BME280;51090;51.512;11.332;2023-04-27T04:47:04;99770.22;;;4.57;nan
64675;BME280;51090;51.512;11.332;2023-04-27T04:49:31;99759.19;;;4.63;nan
64675;BME280;51090;51.512;11.332;2023-04-27T04:51:57;99775.19;;;4.79;nan
64675;BME280;51090;51.512;11.332;2023-04-27T04:54:23;99770.75;;;4.90;nan
64675;BME280;51090;51.512;11.332;2023-04-27T04:56:49;99768.94;;;5.00;nan
64675;BME280;51090;51.512;11.332;2023-04-27T04:59:15;99774.06;;;5.11;nan
64675;BME280;51090;51.512;11.332;2023-04-27T05:01:41;99777.06;;;5.26;nan
64675;BME280;51090;51.512;11.332;2023-04-27T05:04:07;99780.06;;;5.41;nan
64675;BME280;51090;51.512;11.332;2023-04-27T05:06:33;99780.34;;;5.48;nan
64675;BME280;51090;51.512;11.332;2023-04-27T05:08:59;99788.34;;;5.56;nan
64675;BME280;51090;51.512;11.332;2023-04-27T05:11:26;99788.44;;;5.64;nan
64675;BME280;51090;51.512;11.332;2023-04-27T05:13:52;99782.88;;;5.67;nan
64675;BME280;51090;51.512;11.332;2023-04-27T05:16:18;99790.22;;;5.73;nan
64675;BME280;51090;51.512;11.332;2023-04-27T05:18:44;99785.09;;;5.72;nan
64675;BME280;51090;51.512;11.332;2023-04-27T05:21:14;99785.63;;;5.75;nan
64675;BME280;51090;51.512;11.332;2023-04-27T05:23:40;99783.84;;;5.76;nan
64675;BME280;51090;51.512;11.332;2023-04-27T05:26:14;99786.09;;;5.98;nan
64675;BME280;51090;51.512;11.332;2023-04-27T05:28:40;99792.88;;;6.01;nan
64675;BME280;51090;51.512;11.332;2023-04-27T05:31:06;99788.84;;;6.06;nan
64675;BME280;51090;51.512;11.332;2023-04-27T05:33:32;99769.28;;;5.72;nan
64675;BME280;51090;51.512;11.332;2023-04-27T05:35:58;99768.31;;;5.73;nan
64675;BME280;51090;51.512;11.332;2023-04-27T05:38:24;99780.22;;;5.77;nan
64675;BME280;51090;51.512;11.332;2023-04-27T05:40:57;99791.69;;;6.13;nan
64675;BME280;51090;51.512;11.332;2023-04-27T05:43:24;99792.03;;;6.28;nan
64675;BME280;51090;51.512;11.332;2023-04-27T05:45:50;99790.22;;;6.28;nan
64675;BME280;51090;51.512;11.332;2023-04-27T05:48:17;99780.22;;;6.14;nan
64675;BME280;51090;51.512;11.332;2023-04-27T05:50:43;99785.31;;;6.16;nan
64675;BME280;51090;51.512;11.332;2023-04-27T05:53:09;99788.28;;;6.30;nan
64675;BME280;51090;51.512;11.332;2023-04-27T05:55:35;99791.06;;;6.47;nan
64675;BME280;51090;51.512;11.332;2023-04-27T05:58:02;99790.84;;;6.58;nan
64675;BME280;51090;51.512;11.332;2023-04-27T06:00:28;99796.25;;;6.92;nan
64675;BME280;51090;51.512;11.332;2023-04-27T06:02:54;99789.53;;;6.98;nan
64675;BME280;51090;51.512;11.332;2023-04-27T06:05:21;99800.06;;;7.16;nan
64675;BME280;51090;51.512;11.332;2023-04-27T06:07:47;99792.28;;;7.32;nan
64675;BME280;51090;51.512;11.332;2023-04-27T06:10:13;99805.03;;;7.71;nan
64675;BME280;51090;51.512;11.332;2023-04-27T06:12:39;99798.75;;;7.72;nan
64675;BME280;51090;51.512;11.332;2023-04-27T06:15:06;99799.31;;;7.84;nan
64675;BME280;51090;51.512;11.332;2023-04-27T06:17:35;99787.09;;;7.91;nan
64675;BME280;51090;51.512;11.332;2023-04-27T06:20:00;99800.41;;;8.07;nan
64675;BME280;51090;51.512;11.332;2023-04-27T06:22:26;99802.72;;;8.19;nan
64675;BME280;51090;51.512;11.332;2023-04-27T06:24:52;99810.66;;;8.27;nan
64675;BME280;51090;51.512;11.332;2023-04-27T06:27:18;99803.09;;;8.32;nan
64675;BME280;51090;51.512;11.332;2023-04-27T06:29:43;99816.75;;;8.70;nan
64675;BME280;51090;51.512;11.332;2023-04-27T06:32:09;99809.97;;;8.67;nan
64675;BME280;51090;51.512;11.332;2023-04-27T06:34:35;99811.66;;;8.68;nan
64675;BME280;51090;51.512;11.332;2023-04-27T06:37:01;99816.78;;;8.86;nan
64675;BME280;51090;51.512;11.332;2023-04-27T06:39:26;99822.75;;;9.05;nan
64675;BME280;51090;51.512;11.332;2023-04-27T06:41:52;99820.22;;;9.20;nan
64675;BME280;51090;51.512;11.332;2023-04-27T06:44:18;99823.03;;;9.34;nan
64675;BME280;51090;51.512;11.332;2023-04-27T06:46:44;99823.19;;;9.49;nan
64675;BME280;51090;51.512;11.332;2023-04-27T06:49:09;99829.56;;;9.79;nan
64675;BME280;51090;51.512;11.332;2023-04-27T06:51:35;99836.34;;;9.82;nan
64675;BME280;51090;51.512;11.332;2023-04-27T06:54:01;99830.00;;;9.99;nan
64675;BME280;51090;51.512;11.332;2023-04-27T06:56:28;99836.25;;;10.15;nan
64675;BME280;51090;51.512;11.332;2023-04-27T06:58:53;99814.75;;;10.10;nan
64675;BME280;51090;51.512;11.332;2023-04-27T07:01:19;99819.69;;;10.13;nan
64675;BME280;51090;51.512;11.332;2023-04-27T07:03:45;99823.59;;;10.25;nan
64675;BME280;51090;51.512;11.332;2023-04-27T07:06:10;99822.78;;;10.33;nan
64675;BME280;51090;51.512;11.332;2023-04-27T07:08:36;99823.19;;;10.44;nan
64675;BME280;51090;51.512;11.332;2023-04-27T07:11:02;99817.38;;;10.49;nan
64675;BME280;51090;51.512;11.332;2023-04-27T07:13:29;99820.78;;;10.58;nan
64675;BME280;51090;51.512;11.332;2023-04-27T07:15:55;99827.00;;;10.73;nan
64675;BME280;51090;51.512;11.332;2023-04-27T07:18:25;99809.22;;;10.82;nan
64675;BME280;51090;51.512;11.332;2023-04-27T07:20:53;99826.63;;;10.99;nan
64675;BME280;51090;51.512;11.332;2023-04-27T07:23:19;99812.38;;;11.00;nan
64675;BME280;51090;51.512;11.332;2023-04-27T07:25:45;99827.47;;;11.00;nan
64675;BME280;51090;51.512;11.332;2023-04-27T07:28:11;99835.72;;;11.05;nan
64675;BME280;51090;51.512;11.332;2023-04-27T07:30:37;99830.66;;;10.95;nan
64675;BME280;51090;51.512;11.332;2023-04-27T07:33:04;99830.66;;;10.95;nan
64675;BME280;51090;51.512;11.332;2023-04-27T07:35:29;99826.09;;;11.04;nan
64675;BME280;51090;51.512;11.332;2023-04-27T07:37:56;99824.25;;;11.04;nan
64675;BME280;51090;51.512;11.332;2023-04-27T07:40:22;99832.50;;;11.09;nan
64675;BME280;51090;51.512;11.332;2023-04-27T07:42:49;99833.66;;;11.15;nan
64675;BME280;51090;51.512;11.332;2023-04-27T07:45:14;99836.59;;;11.20;nan
64675;BME280;51090;51.512;11.332;2023-04-27T07:47:42;99840.06;;;11.21;nan
64675;BME280;51090;51.512;11.332;2023-04-27T07:50:09;99838.25;;;11.21;nan
64675;BME280;51090;51.512;11.332;2023-04-27T07:52:35;99838.59;;;11.18;nan
64675;BME280;51090;51.512;11.332;2023-04-27T07:55:02;99835.13;;;11.18;nan
64675;BME280;51090;51.512;11.332;2023-04-27T07:57:28;99846.13;;;11.29;nan
64675;BME280;51090;51.512;11.332;2023-04-27T07:59:55;99834.91;;;11.42;nan
64675;BME280;51090;51.512;11.332;2023-04-27T08:02:21;99837.03;;;11.62;nan
64675;BME280;51090;51.512;11.332;2023-04-27T08:04:48;99836.84;;;11.78;nan
64675;BME280;51090;51.512;11.332;2023-04-27T08:07:15;99833.13;;;12.02;nan
64675;BME280;51090;51.512;11.332;2023-04-27T08:09:41;99818.63;;;12.19;nan
64675;BME280;51090;51.512;11.332;2023-04-27T08:12:07;99825.91;;;12.47;nan
64675;BME280;51090;51.512;11.332;2023-04-27T08:14:34;99819.66;;;12.76;nan
64675;BME280;51090;51.512;11.332;2023-04-27T08:17:00;99823.78;;;12.79;nan
64675;BME280;51090;51.512;11.332;2023-04-27T08:19:26;99829.09;;;12.79;nan
64675;BME280;51090;51.512;11.332;2023-04-27T08:21:51;99833.72;;;12.70;nan
64675;BME280;51090;51.512;11.332;2023-04-27T08:24:17;99805.91;;;12.51;nan
64675;BME280;51090;51.512;11.332;2023-04-27T08:26:43;99835.31;;;12.86;nan
64675;BME280;51090;51.512;11.332;2023-04-27T08:29:09;99820.03;;;13.16;nan
64675;BME280;51090;51.512;11.332;2023-04-27T08:31:35;99844.81;;;13.66;nan
64675;BME280;51090;51.512;11.332;2023-04-27T08:34:01;99832.88;;;13.90;nan
64675;BME280;51090;51.512;11.332;2023-04-27T08:36:26;99834.19;;;14.08;nan
64675;BME280;51090;51.512;11.332;2023-04-27T08:38:53;99830.81;;;14.41;nan
64675;BME280;51090;51.512;11.332;2023-04-27T08:41:22;99834.63;;;14.66;nan
64675;BME280;51090;51.512;11.332;2023-04-27T08:43:49;99835.66;;;14.72;nan
64675;BME280;51090;51.512;11.332;2023-04-27T08:46:23;99828.22;;;14.54;nan
64675;BME280;51090;51.512;11.332;2023-04-27T08:48:52;99823.22;;;14.37;nan
64675;BME280;51090;51.512;11.332;2023-04-27T08:51:19;99826.94;;;14.36;nan
64675;BME280;51090;51.512;11.332;2023-04-27T08:53:52;99831.03;;;14.46;nan
64675;BME280;51090;51.512;11.332;2023-04-27T08:56:18;99834.72;;;14.31;nan
64675;BME280;51090;51.512;11.332;2023-04-27T08:58:45;99832.22;;;14.23;nan
64675;BME280;51090;51.512;11.332;2023-04-27T09:01:11;99826.44;;;14.13;nan
64675;BME280;51090;51.512;11.332;2023-04-27T09:03:36;99830.09;;;14.12;nan
64675;BME280;51090;51.512;11.332;2023-04-27T09:06:04;99819.41;;;14.05;nan
64675;BME280;51090;51.512;11.332;2023-04-27T09:08:47;99819.78;;;14.02;nan
64675;BME280;51090;51.512;11.332;2023-04-27T09:11:15;99819.88;;;14.15;nan
64675;BME280;51090;51.512;11.332;2023-04-27T09:13:42;99825.06;;;14.44;nan
64675;BME280;51090;51.512;11.332;2023-04-27T09:16:12;99835.94;;;15.17;nan
64675;BME280;51090;51.512;11.332;2023-04-27T09:18:43;99808.16;;;14.85;nan
64675;BME280;51090;51.512;11.332;2023-04-27T09:21:09;99797.91;;;15.01;nan
64675;BME280;51090;51.512;11.332;2023-04-27T09:23:38;99805.31;;;15.19;nan
64675;BME280;51090;51.512;11.332;2023-04-27T09:26:08;99783.53;;;15.02;nan
64675;BME280;51090;51.512;11.332;2023-04-27T09:28:38;99816.19;;;15.18;nan
64675;BME280;51090;51.512;11.332;2023-04-27T09:31:05;99809.22;;;15.17;nan
64675;BME280;51090;51.512;11.332;2023-04-27T09:33:34;99787.03;;;15.03;nan
64675;BME280;51090;51.512;11.332;2023-04-27T09:36:05;99810.63;;;14.86;nan
64675;BME280;51090;51.512;11.332;2023-04-27T09:38:31;99797.44;;;14.58;nan
64675;BME280;51090;51.512;11.332;2023-04-27T09:40:58;99799.25;;;14.44;nan
64675;BME280;51090;51.512;11.332;2023-04-27T09:43:24;99796.16;;;14.47;nan
64675;BME280;51090;51.512;11.332;2023-04-27T09:45:53;99805.06;;;14.68;nan
64675;BME280;51090;51.512;11.332;2023-04-27T09:48:21;99778.78;;;14.71;nan
64675;BME280;51090;51.512;11.332;2023-04-27T09:50:49;99797.72;;;15.03;nan
64675;BME280;51090;51.512;11.332;2023-04-27T09:53:23;99807.16;;;15.25;nan
64675;BME280;51090;51.512;11.332;2023-04-27T09:56:33;99798.31;;;15.45;nan
64675;BME280;51090;51.512;11.332;2023-04-27T10:02:06;99799.09;;;15.59;nan
64675;BME280;51090;51.512;11.332;2023-04-27T10:07:40;99798.72;;;15.15;nan
64675;BME280;51090;51.512;11.332;2023-04-27T10:10:15;99780.66;;;14.84;nan
64675;BME280;51090;51.512;11.332;2023-04-27T10:12:43;99797.25;;;14.59;nan
64675;BME280;51090;51.512;11.332;2023-04-27T10:15:16;99804.13;;;14.41;nan
64675;BME280;51090;51.512;11.332;2023-04-27T10:17:50;99805.59;;;14.36;nan
64675;BME280;51090;51.512;11.332;2023-04-27T10:20:34;99790.81;;;14.41;nan
64675;BME280;51090;51.512;11.332;2023-04-27T10:23:00;99802.38;;;14.54;nan
64675;BME280;51090;51.512;11.332;2023-04-27T10:25:29;99801.78;;;14.66;nan
64675;BME280;51090;51.512;11.332;2023-04-27T10:28:02;99796.25;;;14.74;nan
64675;BME280;51090;51.512;11.332;2023-04-27T10:30:37;99793.81;;;14.86;nan
64675;BME280;51090;51.512;11.332;2023-04-27T10:33:10;99794.63;;;14.93;nan
64675;BME280;51090;51.512;11.332;2023-04-27T10:35:42;99788.88;;;14.96;nan
64675;BME280;51090;51.512;11.332;2023-04-27T10:38:17;99779.22;;;14.88;nan
64675;BME280;51090;51.512;11.332;2023-04-27T10:40:45;99794.41;;;14.94;nan
64675;BME280;51090;51.512;11.332;2023-04-27T10:43:18;99799.34;;;15.04;nan
64675;BME280;51090;51.512;11.332;2023-04-27T10:45:48;99786.63;;;14.99;nan
64675;BME280;51090;51.512;11.332;2023-04-27T10:48:14;99790.94;;;15.14;nan
64675;BME280;51090;51.512;11.332;2023-04-27T10:50:40;99779.84;;;15.23;nan
64675;BME280;51090;51.512;11.332;2023-04-27T10:53:07;99788.44;;;15.45;nan
64675;BME280;51090;51.512;11.332;2023-04-27T10:55:34;99795.38;;;15.66;nan
64675;BME280;51090;51.512;11.332;2023-04-27T10:58:00;99797.47;;;15.78;nan
64675;BME280;51090;51.512;11.332;2023-04-27T11:00:40;99795.56;;;15.98;nan
64675;BME280;51090;51.512;11.332;2023-04-27T11:03:17;99794.94;;;15.89;nan
64675;BME280;51090;51.512;11.332;2023-04-27T11:05:46;99791.25;;;15.91;nan
64675;BME280;51090;51.512;11.332;2023-04-27T11:08:15;99784.81;;;16.05;nan
64675;BME280;51090;51.512;11.332;2023-04-27T11:10:46;99790.34;;;16.55;nan
64675;BME280;51090;51.512;11.332;2023-04-27T11:13:17;99779.28;;;16.83;nan
64675;BME280;51090;51.512;11.332;2023-04-27T11:15:53;99789.59;;;17.05;nan
64675;BME280;51090;51.512;11.332;2023-04-27T11:18:23;99785.72;;;17.26;nan
64675;BME280;51090;51.512;11.332;2023-04-27T11:20:53;99773.66;;;17.16;nan
64675;BME280;51090;51.512;11.332;2023-04-27T11:23:30;99778.16;;;17.16;nan
64675;BME280;51090;51.512;11.332;2023-04-27T11:26:15;99804.91;;;17.66;nan
64675;BME280;51090;51.512;11.332;2023-04-27T11:29:02;99803.03;;;17.48;nan
64675;BME280;51090;51.512;11.332;2023-04-27T11:31:44;99782.03;;;16.95;nan
64675;BME280;51090;51.512;11.332;2023-04-27T11:34:19;99781.13;;;17.08;nan
64675;BME280;51090;51.512;11.332;2023-04-27T11:37:03;99777.75;;;17.62;nan
64675;BME280;51090;51.512;11.332;2023-04-27T11:39:35;99784.75;;;18.19;nan
64675;BME280;51090;51.512;11.332;2023-04-27T11:42:16;99779.03;;;18.57;nan
64675;BME280;51090;51.512;11.332;2023-04-27T11:47:18;99766.00;;;18.72;nan
64675;BME280;51090;51.512;11.332;2023-04-27T11:49:49;99780.56;;;18.83;nan
64675;BME280;51090;51.512;11.332;2023-04-27T11:52:15;99771.72;;;19.06;nan
64675;BME280;51090;51.512;11.332;2023-04-27T11:54:52;99764.03;;;19.22;nan
64675;BME280;51090;51.512;11.332;2023-04-27T11:57:34;99782.00;;;19.56;nan
64675;BME280;51090;51.512;11.332;2023-04-27T12:00:02;99767.97;;;19.54;nan
64675;BME280;51090;51.512;11.332;2023-04-27T12:02:35;99742.13;;;19.42;nan
64675;BME280;51090;51.512;11.332;2023-04-27T12:05:02;99765.53;;;19.53;nan
64675;BME280;51090;51.512;11.332;2023-04-27T12:07:28;99756.16;;;19.44;nan
64675;BME280;51090;51.512;11.332;2023-04-27T12:09:55;99760.06;;;19.24;nan
64675;BME280;51090;51.512;11.332;2023-04-27T12:12:21;99759.28;;;18.82;nan
64675;BME280;51090;51.512;11.332;2023-04-27T12:14:48;99764.47;;;18.65;nan
64675;BME280;51090;51.512;11.332;2023-04-27T12:17:14;99765.53;;;18.34;nan
64675;BME280;51090;51.512;11.332;2023-04-27T12:19:39;99768.88;;;18.17;nan
64675;BME280;51090;51.512;11.332;2023-04-27T12:22:05;99765.91;;;17.70;nan
64675;BME280;51090;51.512;11.332;2023-04-27T12:24:31;99768.53;;;17.33;nan
64675;BME280;51090;51.512;11.332;2023-04-27T12:26:57;99763.75;;;17.17;nan
64675;BME280;51090;51.512;11.332;2023-04-27T12:29:24;99765.69;;;17.28;nan
64675;BME280;51090;51.512;11.332;2023-04-27T12:31:50;99757.41;;;17.11;nan
64675;BME280;51090;51.512;11.332;2023-04-27T12:34:16;99768.81;;;17.00;nan
64675;BME280;51090;51.512;11.332;2023-04-27T12:36:42;99760.41;;;16.65;nan
64675;BME280;51090;51.512;11.332;2023-04-27T12:39:16;99765.94;;;16.70;nan
64675;BME280;51090;51.512;11.332;2023-04-27T12:41:44;99764.75;;;16.59;nan
64675;BME280;51090;51.512;11.332;2023-04-27T12:44:11;99758.31;;;16.67;nan
64675;BME280;51090;51.512;11.332;2023-04-27T12:46:38;99759.34;;;16.72;nan
64675;BME280;51090;51.512;11.332;2023-04-27T12:49:04;99756.66;;;16.72;nan
64675;BME280;51090;51.512;11.332;2023-04-27T12:51:31;99748.72;;;16.91;nan
64675;BME280;51090;51.512;11.332;2023-04-27T12:53:58;99737.56;;;17.19;nan
64675;BME280;51090;51.512;11.332;2023-04-27T12:56:24;99733.16;;;17.25;nan
64675;BME280;51090;51.512;11.332;2023-04-27T12:58:50;99740.88;;;17.14;nan
64675;BME280;51090;51.512;11.332;2023-04-27T13:01:15;99743.69;;;17.45;nan
64675;BME280;51090;51.512;11.332;2023-04-27T13:03:43;99738.69;;;17.67;nan
64675;BME280;51090;51.512;11.332;2023-04-27T13:06:09;99747.31;;;18.05;nan
64675;BME280;51090;51.512;11.332;2023-04-27T13:08:38;99738.94;;;18.32;nan
64675;BME280;51090;51.512;11.332;2023-04-27T13:11:05;99741.28;;;18.40;nan
64675;BME280;51090;51.512;11.332;2023-04-27T13:13:31;99726.72;;;18.48;nan
64675;BME280;51090;51.512;11.332;2023-04-27T13:15:56;99731.84;;;18.91;nan
64675;BME280;51090;51.512;11.332;2023-04-27T13:18:25;99729.78;;;19.17;nan
64675;BME280;51090;51.512;11.332;2023-04-27T13:20:52;99738.97;;;19.21;nan
64675;BME280;51090;51.512;11.332;2023-04-27T13:23:17;99726.59;;;18.85;nan
64675;BME280;51090;51.512;11.332;2023-04-27T13:25:43;99725.69;;;17.89;nan
64675;BME280;51090;51.512;11.332;2023-04-27T13:28:09;99737.78;;;17.36;nan